sensor_id;sensor_type;location;lat;lon;timestamp;P1;durP1;ratioP1;P2;durP2;ratioP2
64686;SDS011;51113;53.646;-113.674;2023-05-08T00:00:55;10.45;;;3.28;;
64686;SDS011;51113;53.646;-113.674;2023-05-08T00:03:24;8.30;;;3.10;;
64686;SDS011;51113;53.646;-113.674;2023-05-08T00:05:54;9.57;;;3.08;;
64686;SDS011;51113;53.646;-113.674;2023-05-08T00:08:22;6.03;;;3.00;;
64686;SDS011;51113;53.646;-113.674;2023-05-08T00:10:51;5.43;;;3.10;;
64686;SDS011;51113;53.646;-113.674;2023-05-08T00:13:20;10.23;;;2.90;;
64686;SDS011;51113;53.646;-113.674;2023-05-08T00:15:49;5.65;;;3.28;;
64686;SDS011;51113;53.646;-113.674;2023-05-08T00:18:17;6.97;;;3.03;;
64686;SDS011;51113;53.646;-113.674;2023-05-08T00:20:46;4.78;;;2.80;;
64686;SDS011;51113;53.646;-113.674;2023-05-08T00:23:15;4.35;;;2.65;;
64686;SDS011;51113;53.646;-113.674;2023-05-08T00:25:44;4.70;;;2.67;;
64686;SDS011;51113;53.646;-113.674;2023-05-08T00:28:13;5.45;;;2.58;;
64686;SDS011;51113;53.646;-113.674;2023-05-08T00:30:42;4.40;;;2.40;;
64686;SDS011;51113;53.646;-113.674;2023-05-08T00:33:10;3.40;;;2.20;;
64686;SDS011;51113;53.646;-113.674;2023-05-08T00:35:38;6.40;;;2.40;;
64686;SDS011;51113;53.646;-113.674;2023-05-08T00:38:09;6.35;;;2.17;;
64686;SDS011;51113;53.646;-113.674;2023-05-08T00:40:38;4.35;;;2.25;;
64686;SDS011;51113;53.646;-113.674;2023-05-08T00:43:07;4.57;;;2.33;;
64686;SDS011;51113;53.646;-113.674;2023-05-08T00:45:37;5.53;;;2.42;;
64686;SDS011;51113;53.646;-113.674;2023-05-08T00:48:08;3.63;;;2.40;;
64686;SDS011;51113;53.646;-113.674;2023-05-08T00:50:37;4.45;;;2.40;;
64686;SDS011;51113;53.646;-113.674;2023-05-08T00:53:06;4.85;;;2.60;;
64686;SDS011;51113;53.646;-113.674;2023-05-08T00:55:35;4.18;;;2.22;;
64686;SDS011;51113;53.646;-113.674;2023-05-08T00:58:05;7.10;;;3.30;;
64686;SDS011;51113;53.646;-113.674;2023-05-08T01:00:35;4.78;;;2.63;;
64686;SDS011;51113;53.646;-113.674;2023-05-08T01:03:06;4.43;;;2.05;;
64686;SDS011;51113;53.646;-113.674;2023-05-08T01:05:37;4.82;;;2.05;;
64686;SDS011;51113;53.646;-113.674;2023-05-08T01:08:07;3.97;;;2.20;;
64686;SDS011;51113;53.646;-113.674;2023-05-08T01:10:45;8.98;;;2.22;;
64686;SDS011;51113;53.646;-113.674;2023-05-08T01:16:02;3.63;;;2.05;;
64686;SDS011;51113;53.646;-113.674;2023-05-08T01:18:51;4.70;;;2.00;;
64686;SDS011;51113;53.646;-113.674;2023-05-08T01:27:18;2.38;;;1.85;;
64686;SDS011;51113;53.646;-113.674;2023-05-08T01:30:00;2.40;;;1.85;;
64686;SDS011;51113;53.646;-113.674;2023-05-08T01:32:58;9.63;;;2.40;;
64686;SDS011;51113;53.646;-113.674;2023-05-08T01:35:33;4.25;;;1.73;;
64686;SDS011;51113;53.646;-113.674;2023-05-08T01:38:21;2.53;;;1.75;;
64686;SDS011;51113;53.646;-113.674;2023-05-08T01:41:06;2.58;;;1.92;;
64686;SDS011;51113;53.646;-113.674;2023-05-08T01:46:46;4.20;;;1.88;;
64686;SDS011;51113;53.646;-113.674;2023-05-08T01:49:10;5.75;;;2.00;;
64686;SDS011;51113;53.646;-113.674;2023-05-08T01:51:43;3.22;;;1.77;;
64686;SDS011;51113;53.646;-113.674;2023-05-08T01:54:14;7.05;;;2.13;;
64686;SDS011;51113;53.646;-113.674;2023-05-08T01:56:45;6.07;;;2.10;;
64686;SDS011;51113;53.646;-113.674;2023-05-08T01:59:16;5.18;;;2.20;;
64686;SDS011;51113;53.646;-113.674;2023-05-08T02:01:50;4.80;;;2.08;;
64686;SDS011;51113;53.646;-113.674;2023-05-08T02:04:23;6.20;;;1.90;;
64686;SDS011;51113;53.646;-113.674;2023-05-08T02:06:54;4.57;;;2.20;;
64686;SDS011;51113;53.646;-113.674;2023-05-08T02:09:24;5.55;;;2.00;;
64686;SDS011;51113;53.646;-113.674;2023-05-08T02:11:53;4.03;;;1.60;;
64686;SDS011;51113;53.646;-113.674;2023-05-08T02:14:23;2.88;;;1.75;;
64686;SDS011;51113;53.646;-113.674;2023-05-08T02:16:53;2.92;;;1.73;;
64686;SDS011;51113;53.646;-113.674;2023-05-08T02:19:23;5.35;;;1.80;;
64686;SDS011;51113;53.646;-113.674;2023-05-08T02:21:53;4.63;;;1.98;;
64686;SDS011;51113;53.646;-113.674;2023-05-08T02:24:23;3.13;;;1.80;;
64686;SDS011;51113;53.646;-113.674;2023-05-08T02:26:52;2.25;;;1.65;;
64686;SDS011;51113;53.646;-113.674;2023-05-08T02:29:24;5.07;;;1.67;;
64686;SDS011;51113;53.646;-113.674;2023-05-08T02:31:54;3.13;;;1.70;;
64686;SDS011;51113;53.646;-113.674;2023-05-08T02:34:23;3.10;;;1.42;;
64686;SDS011;51113;53.646;-113.674;2023-05-08T02:36:53;1.80;;;1.55;;
64686;SDS011;51113;53.646;-113.674;2023-05-08T02:39:24;2.20;;;1.45;;
64686;SDS011;51113;53.646;-113.674;2023-05-08T02:41:55;3.35;;;1.90;;
64686;SDS011;51113;53.646;-113.674;2023-05-08T02:44:24;5.65;;;1.90;;
64686;SDS011;51113;53.646;-113.674;2023-05-08T02:46:58;7.38;;;1.90;;
64686;SDS011;51113;53.646;-113.674;2023-05-08T02:52:13;3.97;;;1.52;;
64686;SDS011;51113;53.646;-113.674;2023-05-08T02:54:51;5.32;;;1.60;;
64686;SDS011;51113;53.646;-113.674;2023-05-08T02:57:45;3.15;;;1.35;;
64686;SDS011;51113;53.646;-113.674;2023-05-08T03:00:19;2.55;;;1.00;;
64686;SDS011;51113;53.646;-113.674;2023-05-08T03:02:58;2.97;;;1.10;;
64686;SDS011;51113;53.646;-113.674;2023-05-08T03:05:34;2.38;;;1.20;;
64686;SDS011;51113;53.646;-113.674;2023-05-08T03:08:09;3.90;;;1.20;;
64686;SDS011;51113;53.646;-113.674;2023-05-08T03:10:44;3.88;;;1.30;;
64686;SDS011;51113;53.646;-113.674;2023-05-08T03:13:17;1.90;;;1.10;;
64686;SDS011;51113;53.646;-113.674;2023-05-08T03:15:51;4.57;;;1.10;;
64686;SDS011;51113;53.646;-113.674;2023-05-08T03:18:30;2.03;;;1.23;;
64686;SDS011;51113;53.646;-113.674;2023-05-08T03:21:02;2.10;;;1.20;;
64686;SDS011;51113;53.646;-113.674;2023-05-08T03:23:34;2.58;;;1.40;;
64686;SDS011;51113;53.646;-113.674;2023-05-08T03:26:05;8.30;;;1.60;;
64686;SDS011;51113;53.646;-113.674;2023-05-08T03:28:35;4.13;;;1.50;;
64686;SDS011;51113;53.646;-113.674;2023-05-08T03:31:04;7.13;;;1.70;;
64686;SDS011;51113;53.646;-113.674;2023-05-08T03:33:35;5.30;;;1.60;;
64686;SDS011;51113;53.646;-113.674;2023-05-08T03:36:05;4.47;;;1.55;;
64686;SDS011;51113;53.646;-113.674;2023-05-08T03:38:34;4.20;;;1.50;;
64686;SDS011;51113;53.646;-113.674;2023-05-08T03:41:03;5.80;;;1.80;;
64686;SDS011;51113;53.646;-113.674;2023-05-08T03:43:31;5.75;;;1.80;;
64686;SDS011;51113;53.646;-113.674;2023-05-08T03:46:06;3.75;;;1.50;;
64686;SDS011;51113;53.646;-113.674;2023-05-08T03:48:36;8.30;;;1.88;;
64686;SDS011;51113;53.646;-113.674;2023-05-08T03:51:06;5.40;;;1.90;;
64686;SDS011;51113;53.646;-113.674;2023-05-08T03:53:35;5.72;;;2.00;;
64686;SDS011;51113;53.646;-113.674;2023-05-08T03:56:04;4.22;;;1.90;;
64686;SDS011;51113;53.646;-113.674;2023-05-08T04:01:24;3.80;;;1.45;;
64686;SDS011;51113;53.646;-113.674;2023-05-08T04:03:55;2.15;;;1.40;;
64686;SDS011;51113;53.646;-113.674;2023-05-08T04:09:20;4.82;;;1.40;;
64686;SDS011;51113;53.646;-113.674;2023-05-08T04:14:44;6.20;;;1.40;;
64686;SDS011;51113;53.646;-113.674;2023-05-08T04:17:41;5.63;;;1.52;;
64686;SDS011;51113;53.646;-113.674;2023-05-08T04:20:21;4.60;;;1.70;;
64686;SDS011;51113;53.646;-113.674;2023-05-08T04:22:54;4.38;;;1.38;;
64686;SDS011;51113;53.646;-113.674;2023-05-08T04:25:25;5.28;;;1.70;;
64686;SDS011;51113;53.646;-113.674;2023-05-08T04:27:57;4.93;;;1.65;;
64686;SDS011;51113;53.646;-113.674;2023-05-08T04:30:26;3.17;;;1.70;;
64686;SDS011;51113;53.646;-113.674;2023-05-08T04:32:55;2.88;;;1.60;;
64686;SDS011;51113;53.646;-113.674;2023-05-08T04:35:25;2.47;;;1.63;;
64686;SDS011;51113;53.646;-113.674;2023-05-08T04:37:53;4.82;;;1.40;;
64686;SDS011;51113;53.646;-113.674;2023-05-08T04:40:22;6.55;;;1.60;;
64686;SDS011;51113;53.646;-113.674;2023-05-08T04:42:51;11.38;;;1.85;;
64686;SDS011;51113;53.646;-113.674;2023-05-08T04:45:20;4.95;;;1.20;;
64686;SDS011;51113;53.646;-113.674;2023-05-08T04:47:49;4.05;;;1.23;;
64686;SDS011;51113;53.646;-113.674;2023-05-08T04:50:18;3.95;;;1.27;;
64686;SDS011;51113;53.646;-113.674;2023-05-08T04:52:46;2.35;;;1.20;;
64686;SDS011;51113;53.646;-113.674;2023-05-08T04:55:15;4.18;;;1.48;;
64686;SDS011;51113;53.646;-113.674;2023-05-08T04:57:44;3.63;;;1.58;;
64686;SDS011;51113;53.646;-113.674;2023-05-08T05:00:13;2.03;;;1.30;;
64686;SDS011;51113;53.646;-113.674;2023-05-08T05:02:42;3.60;;;1.40;;
64686;SDS011;51113;53.646;-113.674;2023-05-08T05:05:11;4.80;;;1.50;;
64686;SDS011;51113;53.646;-113.674;2023-05-08T05:07:40;4.05;;;1.73;;
64686;SDS011;51113;53.646;-113.674;2023-05-08T05:10:09;1.85;;;1.33;;
64686;SDS011;51113;53.646;-113.674;2023-05-08T05:12:37;3.42;;;1.30;;
64686;SDS011;51113;53.646;-113.674;2023-05-08T05:15:06;2.65;;;1.50;;
64686;SDS011;51113;53.646;-113.674;2023-05-08T05:17:36;3.35;;;1.40;;
64686;SDS011;51113;53.646;-113.674;2023-05-08T05:20:04;2.65;;;1.45;;
64686;SDS011;51113;53.646;-113.674;2023-05-08T05:22:34;3.13;;;1.35;;
64686;SDS011;51113;53.646;-113.674;2023-05-08T05:25:04;2.30;;;1.30;;
64686;SDS011;51113;53.646;-113.674;2023-05-08T05:27:35;2.47;;;1.42;;
64686;SDS011;51113;53.646;-113.674;2023-05-08T05:30:04;4.20;;;1.30;;
64686;SDS011;51113;53.646;-113.674;2023-05-08T05:32:33;2.53;;;1.45;;
64686;SDS011;51113;53.646;-113.674;2023-05-08T05:35:02;2.25;;;1.30;;
64686;SDS011;51113;53.646;-113.674;2023-05-08T05:37:30;5.93;;;1.20;;
64686;SDS011;51113;53.646;-113.674;2023-05-08T05:39:59;2.00;;;1.20;;
64686;SDS011;51113;53.646;-113.674;2023-05-08T05:42:27;4.97;;;1.50;;
64686;SDS011;51113;53.646;-113.674;2023-05-08T05:44:55;2.63;;;1.33;;
64686;SDS011;51113;53.646;-113.674;2023-05-08T05:47:24;2.88;;;1.42;;
64686;SDS011;51113;53.646;-113.674;2023-05-08T05:49:52;3.35;;;1.30;;
64686;SDS011;51113;53.646;-113.674;2023-05-08T05:52:21;4.00;;;1.50;;
64686;SDS011;51113;53.646;-113.674;2023-05-08T05:54:50;3.38;;;1.52;;
64686;SDS011;51113;53.646;-113.674;2023-05-08T05:57:18;6.15;;;1.80;;
64686;SDS011;51113;53.646;-113.674;2023-05-08T05:59:46;3.83;;;1.80;;
64686;SDS011;51113;53.646;-113.674;2023-05-08T06:02:15;3.20;;;1.70;;
64686;SDS011;51113;53.646;-113.674;2023-05-08T06:04:45;3.55;;;1.65;;
64686;SDS011;51113;53.646;-113.674;2023-05-08T06:07:14;3.17;;;1.77;;
64686;SDS011;51113;53.646;-113.674;2023-05-08T06:09:42;5.97;;;2.10;;
64686;SDS011;51113;53.646;-113.674;2023-05-08T06:12:10;4.68;;;2.08;;
64686;SDS011;51113;53.646;-113.674;2023-05-08T06:14:40;6.07;;;2.00;;
64686;SDS011;51113;53.646;-113.674;2023-05-08T06:17:09;4.43;;;2.00;;
64686;SDS011;51113;53.646;-113.674;2023-05-08T06:19:37;4.50;;;2.08;;
64686;SDS011;51113;53.646;-113.674;2023-05-08T06:22:06;4.90;;;2.10;;
64686;SDS011;51113;53.646;-113.674;2023-05-08T06:24:35;4.05;;;1.88;;
64686;SDS011;51113;53.646;-113.674;2023-05-08T06:27:02;4.68;;;1.58;;
64686;SDS011;51113;53.646;-113.674;2023-05-08T06:29:31;3.92;;;1.45;;
64686;SDS011;51113;53.646;-113.674;2023-05-08T06:32:00;3.67;;;1.88;;
64686;SDS011;51113;53.646;-113.674;2023-05-08T06:34:28;3.00;;;1.58;;
64686;SDS011;51113;53.646;-113.674;2023-05-08T06:36:58;4.18;;;1.70;;
64686;SDS011;51113;53.646;-113.674;2023-05-08T06:39:26;2.95;;;1.50;;
64686;SDS011;51113;53.646;-113.674;2023-05-08T06:41:55;2.38;;;1.63;;
64686;SDS011;51113;53.646;-113.674;2023-05-08T06:44:24;3.50;;;1.80;;
64686;SDS011;51113;53.646;-113.674;2023-05-08T06:46:52;3.10;;;1.90;;
64686;SDS011;51113;53.646;-113.674;2023-05-08T06:49:22;3.05;;;1.70;;
64686;SDS011;51113;53.646;-113.674;2023-05-08T06:51:50;2.95;;;1.65;;
64686;SDS011;51113;53.646;-113.674;2023-05-08T06:54:22;3.03;;;1.90;;
64686;SDS011;51113;53.646;-113.674;2023-05-08T06:56:53;2.88;;;1.70;;
64686;SDS011;51113;53.646;-113.674;2023-05-08T06:59:22;4.47;;;1.90;;
64686;SDS011;51113;53.646;-113.674;2023-05-08T07:01:51;4.35;;;2.00;;
64686;SDS011;51113;53.646;-113.674;2023-05-08T07:04:19;5.63;;;2.03;;
64686;SDS011;51113;53.646;-113.674;2023-05-08T07:06:49;4.25;;;2.00;;
64686;SDS011;51113;53.646;-113.674;2023-05-08T07:09:18;5.18;;;2.20;;
64686;SDS011;51113;53.646;-113.674;2023-05-08T07:11:47;3.05;;;1.85;;
64686;SDS011;51113;53.646;-113.674;2023-05-08T07:14:16;4.38;;;1.80;;
64686;SDS011;51113;53.646;-113.674;2023-05-08T07:16:45;2.67;;;1.95;;
64686;SDS011;51113;53.646;-113.674;2023-05-08T07:19:14;5.88;;;1.90;;
64686;SDS011;51113;53.646;-113.674;2023-05-08T07:21:42;2.97;;;2.00;;
64686;SDS011;51113;53.646;-113.674;2023-05-08T07:24:13;3.35;;;2.00;;
64686;SDS011;51113;53.646;-113.674;2023-05-08T07:26:41;2.60;;;2.10;;
64686;SDS011;51113;53.646;-113.674;2023-05-08T07:29:10;4.10;;;2.10;;
64686;SDS011;51113;53.646;-113.674;2023-05-08T07:31:38;3.50;;;2.10;;
64686;SDS011;51113;53.646;-113.674;2023-05-08T07:34:08;4.60;;;2.60;;
64686;SDS011;51113;53.646;-113.674;2023-05-08T07:36:36;3.70;;;2.20;;
64686;SDS011;51113;53.646;-113.674;2023-05-08T07:39:05;3.40;;;2.40;;
64686;SDS011;51113;53.646;-113.674;2023-05-08T07:41:33;6.30;;;2.33;;
64686;SDS011;51113;53.646;-113.674;2023-05-08T07:44:02;2.45;;;2.05;;
64686;SDS011;51113;53.646;-113.674;2023-05-08T07:46:32;7.40;;;2.15;;
64686;SDS011;51113;53.646;-113.674;2023-05-08T07:49:01;3.92;;;2.40;;
64686;SDS011;51113;53.646;-113.674;2023-05-08T07:51:29;5.70;;;2.20;;
64686;SDS011;51113;53.646;-113.674;2023-05-08T07:53:59;6.63;;;2.03;;
64686;SDS011;51113;53.646;-113.674;2023-05-08T07:56:27;3.42;;;2.30;;
64686;SDS011;51113;53.646;-113.674;2023-05-08T07:58:56;4.13;;;2.20;;
64686;SDS011;51113;53.646;-113.674;2023-05-08T08:01:25;4.80;;;2.10;;
64686;SDS011;51113;53.646;-113.674;2023-05-08T08:03:54;3.17;;;2.22;;
64686;SDS011;51113;53.646;-113.674;2023-05-08T08:06:23;3.38;;;2.33;;
64686;SDS011;51113;53.646;-113.674;2023-05-08T08:08:51;3.33;;;1.85;;
64686;SDS011;51113;53.646;-113.674;2023-05-08T08:11:20;3.60;;;2.28;;
64686;SDS011;51113;53.646;-113.674;2023-05-08T08:13:49;6.50;;;2.53;;
64686;SDS011;51113;53.646;-113.674;2023-05-08T08:16:18;3.85;;;2.10;;
64686;SDS011;51113;53.646;-113.674;2023-05-08T08:18:46;3.92;;;2.47;;
64686;SDS011;51113;53.646;-113.674;2023-05-08T08:21:15;5.82;;;2.33;;
64686;SDS011;51113;53.646;-113.674;2023-05-08T08:23:44;5.82;;;2.30;;
64686;SDS011;51113;53.646;-113.674;2023-05-08T08:26:13;3.92;;;2.20;;
64686;SDS011;51113;53.646;-113.674;2023-05-08T08:28:41;3.55;;;2.40;;
64686;SDS011;51113;53.646;-113.674;2023-05-08T08:31:10;5.25;;;2.28;;
64686;SDS011;51113;53.646;-113.674;2023-05-08T08:33:38;6.80;;;2.33;;
64686;SDS011;51113;53.646;-113.674;2023-05-08T08:36:15;4.80;;;2.70;;
64686;SDS011;51113;53.646;-113.674;2023-05-08T08:38:44;5.78;;;2.75;;
64686;SDS011;51113;53.646;-113.674;2023-05-08T08:41:13;5.32;;;2.15;;
64686;SDS011;51113;53.646;-113.674;2023-05-08T08:43:41;3.90;;;2.38;;
64686;SDS011;51113;53.646;-113.674;2023-05-08T08:46:11;4.68;;;2.40;;
64686;SDS011;51113;53.646;-113.674;2023-05-08T08:48:44;8.20;;;2.53;;
64686;SDS011;51113;53.646;-113.674;2023-05-08T08:51:17;6.68;;;2.33;;
64686;SDS011;51113;53.646;-113.674;2023-05-08T08:56:40;4.72;;;2.10;;
64686;SDS011;51113;53.646;-113.674;2023-05-08T08:59:11;5.90;;;2.80;;
64686;SDS011;51113;53.646;-113.674;2023-05-08T09:01:40;4.22;;;2.40;;
64686;SDS011;51113;53.646;-113.674;2023-05-08T09:04:12;5.90;;;2.30;;
64686;SDS011;51113;53.646;-113.674;2023-05-08T09:06:41;4.88;;;2.17;;
64686;SDS011;51113;53.646;-113.674;2023-05-08T09:09:10;4.65;;;2.30;;
64686;SDS011;51113;53.646;-113.674;2023-05-08T09:11:40;6.55;;;2.40;;
64686;SDS011;51113;53.646;-113.674;2023-05-08T09:14:11;5.43;;;2.53;;
64686;SDS011;51113;53.646;-113.674;2023-05-08T09:16:40;4.30;;;2.30;;
64686;SDS011;51113;53.646;-113.674;2023-05-08T09:19:09;5.57;;;2.25;;
64686;SDS011;51113;53.646;-113.674;2023-05-08T09:21:42;3.25;;;2.15;;
64686;SDS011;51113;53.646;-113.674;2023-05-08T09:24:12;4.05;;;2.22;;
64686;SDS011;51113;53.646;-113.674;2023-05-08T09:26:41;6.97;;;2.50;;
64686;SDS011;51113;53.646;-113.674;2023-05-08T09:29:16;3.33;;;2.50;;
64686;SDS011;51113;53.646;-113.674;2023-05-08T09:31:47;3.80;;;2.30;;
64686;SDS011;51113;53.646;-113.674;2023-05-08T09:34:27;3.55;;;2.40;;
64686;SDS011;51113;53.646;-113.674;2023-05-08T09:39:29;4.65;;;2.53;;
64686;SDS011;51113;53.646;-113.674;2023-05-08T09:41:58;5.00;;;2.45;;
64686;SDS011;51113;53.646;-113.674;2023-05-08T09:47:17;3.88;;;2.50;;
64686;SDS011;51113;53.646;-113.674;2023-05-08T09:52:25;3.42;;;2.60;;
64686;SDS011;51113;53.646;-113.674;2023-05-08T09:55:05;4.45;;;2.45;;
64686;SDS011;51113;53.646;-113.674;2023-05-08T09:57:36;4.68;;;2.60;;
64686;SDS011;51113;53.646;-113.674;2023-05-08T10:00:08;4.55;;;2.70;;
64686;SDS011;51113;53.646;-113.674;2023-05-08T10:02:52;3.75;;;2.42;;
64686;SDS011;51113;53.646;-113.674;2023-05-08T10:05:25;4.20;;;2.22;;
64686;SDS011;51113;53.646;-113.674;2023-05-08T10:10:45;4.63;;;2.60;;
64686;SDS011;51113;53.646;-113.674;2023-05-08T10:13:14;4.13;;;2.85;;
64686;SDS011;51113;53.646;-113.674;2023-05-08T10:15:43;7.53;;;3.28;;
64686;SDS011;51113;53.646;-113.674;2023-05-08T10:18:12;5.20;;;2.85;;
64686;SDS011;51113;53.646;-113.674;2023-05-08T10:20:44;3.75;;;2.70;;
64686;SDS011;51113;53.646;-113.674;2023-05-08T10:23:16;6.68;;;3.00;;
64686;SDS011;51113;53.646;-113.674;2023-05-08T10:25:45;5.90;;;3.40;;
64686;SDS011;51113;53.646;-113.674;2023-05-08T10:31:01;5.60;;;3.15;;
64686;SDS011;51113;53.646;-113.674;2023-05-08T10:33:32;6.82;;;3.13;;
64686;SDS011;51113;53.646;-113.674;2023-05-08T10:36:02;6.10;;;3.33;;
64686;SDS011;51113;53.646;-113.674;2023-05-08T10:38:32;5.35;;;3.20;;
64686;SDS011;51113;53.646;-113.674;2023-05-08T10:41:01;6.05;;;3.33;;
64686;SDS011;51113;53.646;-113.674;2023-05-08T10:43:30;4.82;;;3.17;;
64686;SDS011;51113;53.646;-113.674;2023-05-08T10:46:03;4.95;;;3.65;;
64686;SDS011;51113;53.646;-113.674;2023-05-08T10:48:42;7.85;;;3.30;;
64686;SDS011;51113;53.646;-113.674;2023-05-08T10:57:12;5.35;;;3.67;;
64686;SDS011;51113;53.646;-113.674;2023-05-08T10:59:45;12.35;;;3.97;;
64686;SDS011;51113;53.646;-113.674;2023-05-08T11:02:14;6.13;;;3.72;;
64686;SDS011;51113;53.646;-113.674;2023-05-08T11:04:43;6.10;;;3.88;;
64686;SDS011;51113;53.646;-113.674;2023-05-08T11:07:12;4.70;;;3.58;;
64686;SDS011;51113;53.646;-113.674;2023-05-08T11:12:26;8.20;;;3.10;;
64686;SDS011;51113;53.646;-113.674;2023-05-08T11:15:04;5.55;;;3.80;;
64686;SDS011;51113;53.646;-113.674;2023-05-08T11:17:33;6.90;;;3.30;;
64686;SDS011;51113;53.646;-113.674;2023-05-08T11:20:04;4.82;;;3.78;;
64686;SDS011;51113;53.646;-113.674;2023-05-08T11:22:33;7.63;;;3.95;;
64686;SDS011;51113;53.646;-113.674;2023-05-08T11:25:05;5.57;;;3.78;;
64686;SDS011;51113;53.646;-113.674;2023-05-08T11:27:36;8.05;;;3.70;;
64686;SDS011;51113;53.646;-113.674;2023-05-08T11:33:10;5.38;;;3.95;;
64686;SDS011;51113;53.646;-113.674;2023-05-08T11:35:51;5.07;;;3.75;;
64686;SDS011;51113;53.646;-113.674;2023-05-08T11:38:42;6.55;;;3.70;;
64686;SDS011;51113;53.646;-113.674;2023-05-08T11:41:31;5.88;;;3.85;;
64686;SDS011;51113;53.646;-113.674;2023-05-08T11:46:51;6.00;;;3.60;;
64686;SDS011;51113;53.646;-113.674;2023-05-08T11:49:22;6.72;;;3.85;;
64686;SDS011;51113;53.646;-113.674;2023-05-08T11:51:56;6.32;;;3.70;;
64686;SDS011;51113;53.646;-113.674;2023-05-08T11:54:28;4.60;;;3.60;;
64686;SDS011;51113;53.646;-113.674;2023-05-08T11:56:58;6.03;;;3.80;;
64686;SDS011;51113;53.646;-113.674;2023-05-08T11:59:27;9.18;;;3.70;;
64686;SDS011;51113;53.646;-113.674;2023-05-08T12:01:55;7.22;;;3.70;;
64686;SDS011;51113;53.646;-113.674;2023-05-08T12:04:43;8.07;;;3.28;;
64686;SDS011;51113;53.646;-113.674;2023-05-08T12:07:13;7.28;;;3.80;;
64686;SDS011;51113;53.646;-113.674;2023-05-08T12:09:44;4.90;;;3.45;;
64686;SDS011;51113;53.646;-113.674;2023-05-08T12:12:13;4.13;;;3.33;;
64686;SDS011;51113;53.646;-113.674;2023-05-08T12:14:42;6.47;;;3.25;;
64686;SDS011;51113;53.646;-113.674;2023-05-08T12:17:10;4.63;;;3.30;;
64686;SDS011;51113;53.646;-113.674;2023-05-08T12:19:46;4.93;;;3.50;;
64686;SDS011;51113;53.646;-113.674;2023-05-08T12:22:15;7.30;;;3.42;;
64686;SDS011;51113;53.646;-113.674;2023-05-08T12:24:44;5.32;;;3.25;;
64686;SDS011;51113;53.646;-113.674;2023-05-08T12:27:12;7.20;;;3.05;;
64686;SDS011;51113;53.646;-113.674;2023-05-08T12:29:43;6.18;;;2.85;;
64686;SDS011;51113;53.646;-113.674;2023-05-08T12:32:13;6.10;;;3.38;;
64686;SDS011;51113;53.646;-113.674;2023-05-08T12:34:42;9.93;;;3.00;;
64686;SDS011;51113;53.646;-113.674;2023-05-08T12:37:10;4.80;;;2.80;;
64686;SDS011;51113;53.646;-113.674;2023-05-08T12:39:42;7.50;;;2.90;;
64686;SDS011;51113;53.646;-113.674;2023-05-08T12:42:11;5.47;;;2.73;;
64686;SDS011;51113;53.646;-113.674;2023-05-08T12:44:40;3.97;;;2.55;;
64686;SDS011;51113;53.646;-113.674;2023-05-08T12:47:20;6.20;;;2.90;;
64686;SDS011;51113;53.646;-113.674;2023-05-08T12:49:48;6.47;;;2.70;;
64686;SDS011;51113;53.646;-113.674;2023-05-08T12:52:17;5.93;;;2.78;;
64686;SDS011;51113;53.646;-113.674;2023-05-08T12:54:47;5.40;;;2.70;;
64686;SDS011;51113;53.646;-113.674;2023-05-08T12:57:16;4.45;;;2.50;;
64686;SDS011;51113;53.646;-113.674;2023-05-08T12:59:48;3.53;;;2.20;;
64686;SDS011;51113;53.646;-113.674;2023-05-08T13:02:17;5.72;;;2.30;;
64686;SDS011;51113;53.646;-113.674;2023-05-08T13:04:53;3.58;;;2.22;;
64686;SDS011;51113;53.646;-113.674;2023-05-08T13:07:22;8.15;;;2.47;;
64686;SDS011;51113;53.646;-113.674;2023-05-08T13:09:55;7.07;;;2.45;;
64686;SDS011;51113;53.646;-113.674;2023-05-08T13:12:30;6.70;;;2.35;;
64686;SDS011;51113;53.646;-113.674;2023-05-08T13:14:59;7.10;;;2.42;;
64686;SDS011;51113;53.646;-113.674;2023-05-08T13:17:29;5.47;;;2.50;;
64686;SDS011;51113;53.646;-113.674;2023-05-08T13:19:58;4.35;;;2.33;;
64686;SDS011;51113;53.646;-113.674;2023-05-08T13:22:28;4.95;;;2.10;;
64686;SDS011;51113;53.646;-113.674;2023-05-08T13:24:57;3.78;;;2.50;;
64686;SDS011;51113;53.646;-113.674;2023-05-08T13:27:26;9.13;;;2.33;;
64686;SDS011;51113;53.646;-113.674;2023-05-08T13:29:54;5.82;;;2.50;;
64686;SDS011;51113;53.646;-113.674;2023-05-08T13:32:23;8.48;;;2.40;;
64686;SDS011;51113;53.646;-113.674;2023-05-08T13:34:51;5.15;;;2.38;;
64686;SDS011;51113;53.646;-113.674;2023-05-08T13:37:25;5.18;;;2.20;;
64686;SDS011;51113;53.646;-113.674;2023-05-08T13:39:53;4.75;;;2.28;;
64686;SDS011;51113;53.646;-113.674;2023-05-08T13:42:21;10.75;;;2.53;;
64686;SDS011;51113;53.646;-113.674;2023-05-08T13:44:50;6.15;;;2.40;;
64686;SDS011;51113;53.646;-113.674;2023-05-08T13:47:19;5.75;;;2.38;;
64686;SDS011;51113;53.646;-113.674;2023-05-08T13:49:48;4.00;;;2.35;;
64686;SDS011;51113;53.646;-113.674;2023-05-08T13:52:17;11.95;;;2.47;;
64686;SDS011;51113;53.646;-113.674;2023-05-08T13:54:45;7.78;;;2.50;;
64686;SDS011;51113;53.646;-113.674;2023-05-08T13:57:14;6.63;;;2.63;;
64686;SDS011;51113;53.646;-113.674;2023-05-08T13:59:43;4.68;;;2.88;;
64686;SDS011;51113;53.646;-113.674;2023-05-08T14:02:12;6.28;;;3.03;;
64686;SDS011;51113;53.646;-113.674;2023-05-08T14:04:45;7.65;;;2.55;;
64686;SDS011;51113;53.646;-113.674;2023-05-08T14:07:14;10.05;;;2.65;;
64686;SDS011;51113;53.646;-113.674;2023-05-08T14:09:43;7.00;;;3.13;;
64686;SDS011;51113;53.646;-113.674;2023-05-08T14:12:13;7.57;;;3.05;;
64686;SDS011;51113;53.646;-113.674;2023-05-08T14:14:42;4.85;;;2.55;;
64686;SDS011;51113;53.646;-113.674;2023-05-08T14:17:11;3.78;;;2.92;;
64686;SDS011;51113;53.646;-113.674;2023-05-08T14:19:39;7.32;;;2.88;;
64686;SDS011;51113;53.646;-113.674;2023-05-08T14:22:08;7.75;;;2.80;;
64686;SDS011;51113;53.646;-113.674;2023-05-08T14:24:36;5.70;;;2.70;;
64686;SDS011;51113;53.646;-113.674;2023-05-08T14:27:06;6.45;;;2.97;;
64686;SDS011;51113;53.646;-113.674;2023-05-08T14:29:34;7.40;;;3.05;;
64686;SDS011;51113;53.646;-113.674;2023-05-08T14:32:03;8.15;;;3.47;;
64686;SDS011;51113;53.646;-113.674;2023-05-08T14:34:32;8.57;;;3.63;;
64686;SDS011;51113;53.646;-113.674;2023-05-08T14:37:01;8.10;;;3.35;;
64686;SDS011;51113;53.646;-113.674;2023-05-08T14:39:29;11.48;;;3.35;;
64686;SDS011;51113;53.646;-113.674;2023-05-08T14:41:59;14.50;;;3.25;;
64686;SDS011;51113;53.646;-113.674;2023-05-08T14:44:32;6.57;;;3.30;;
64686;SDS011;51113;53.646;-113.674;2023-05-08T14:47:01;10.55;;;3.55;;
64686;SDS011;51113;53.646;-113.674;2023-05-08T14:49:29;11.82;;;3.30;;
64686;SDS011;51113;53.646;-113.674;2023-05-08T14:52:04;8.05;;;3.17;;
64686;SDS011;51113;53.646;-113.674;2023-05-08T14:54:33;5.38;;;2.90;;
64686;SDS011;51113;53.646;-113.674;2023-05-08T14:57:02;10.70;;;2.97;;
64686;SDS011;51113;53.646;-113.674;2023-05-08T14:59:30;6.85;;;2.83;;
64686;SDS011;51113;53.646;-113.674;2023-05-08T15:01:59;9.68;;;3.20;;
64686;SDS011;51113;53.646;-113.674;2023-05-08T15:04:28;7.05;;;2.88;;
64686;SDS011;51113;53.646;-113.674;2023-05-08T15:06:56;10.95;;;3.35;;
64686;SDS011;51113;53.646;-113.674;2023-05-08T15:09:25;7.60;;;3.05;;
64686;SDS011;51113;53.646;-113.674;2023-05-08T15:11:53;7.55;;;3.28;;
64686;SDS011;51113;53.646;-113.674;2023-05-08T15:14:22;9.35;;;3.97;;
64686;SDS011;51113;53.646;-113.674;2023-05-08T15:16:50;10.02;;;3.53;;
64686;SDS011;51113;53.646;-113.674;2023-05-08T15:19:19;5.35;;;3.15;;
64686;SDS011;51113;53.646;-113.674;2023-05-08T15:21:48;9.60;;;3.40;;